sensor_id;sensor_type;location;lat;lon;timestamp;P1;durP1;ratioP1;P2;durP2;ratioP2
42886;SDS011;29032;56.028;92.904;2023-05-15T00:01:53;21.63;;;11.43;;
42886;SDS011;29032;56.028;92.904;2023-05-15T00:06:57;20.70;;;12.00;;
42886;SDS011;29032;56.028;92.904;2023-05-15T00:11:59;25.20;;;11.23;;
42886;SDS011;29032;56.028;92.904;2023-05-15T00:22:41;27.40;;;11.93;;
42886;SDS011;29032;56.028;92.904;2023-05-15T00:28:01;18.13;;;10.47;;
42886;SDS011;29032;56.028;92.904;2023-05-15T00:33:21;20.90;;;10.33;;
42886;SDS011;29032;56.028;92.904;2023-05-15T00:38:25;18.13;;;8.13;;
42886;SDS011;29032;56.028;92.904;2023-05-15T00:49:06;10.43;;;6.37;;
42886;SDS011;29032;56.028;92.904;2023-05-15T00:54:28;14.57;;;6.70;;
42886;SDS011;29032;56.028;92.904;2023-05-15T01:10:14;13.37;;;7.17;;
42886;SDS011;29032;56.028;92.904;2023-05-15T01:15:34;9.23;;;5.03;;
42886;SDS011;29032;56.028;92.904;2023-05-15T01:20:41;6.70;;;4.70;;
42886;SDS011;29032;56.028;92.904;2023-05-15T01:31:24;12.30;;;4.63;;
42886;SDS011;29032;56.028;92.904;2023-05-15T01:36:46;8.73;;;4.83;;
42886;SDS011;29032;56.028;92.904;2023-05-15T01:47:34;11.80;;;5.10;;
42886;SDS011;29032;56.028;92.904;2023-05-15T01:52:41;13.80;;;7.57;;
42886;SDS011;29032;56.028;92.904;2023-05-15T01:57:48;12.83;;;6.77;;
42886;SDS011;29032;56.028;92.904;2023-05-15T02:02:53;12.77;;;7.23;;
42886;SDS011;29032;56.028;92.904;2023-05-15T02:07:57;17.30;;;7.53;;
42886;SDS011;29032;56.028;92.904;2023-05-15T02:18:41;7.83;;;4.30;;
42886;SDS011;29032;56.028;92.904;2023-05-15T02:23:43;6.87;;;3.80;;
42886;SDS011;29032;56.028;92.904;2023-05-15T02:28:47;11.20;;;4.40;;
42886;SDS011;29032;56.028;92.904;2023-05-15T02:33:57;6.73;;;3.27;;
42886;SDS011;29032;56.028;92.904;2023-05-15T02:39:27;2.83;;;2.20;;
42886;SDS011;29032;56.028;92.904;2023-05-15T02:44:30;6.03;;;1.90;;
42886;SDS011;29032;56.028;92.904;2023-05-15T02:49:35;3.17;;;1.87;;
42886;SDS011;29032;56.028;92.904;2023-05-15T02:54:38;3.40;;;1.93;;
42886;SDS011;29032;56.028;92.904;2023-05-15T02:59:40;4.10;;;1.90;;
42886;SDS011;29032;56.028;92.904;2023-05-15T03:04:44;3.70;;;2.00;;
42886;SDS011;29032;56.028;92.904;2023-05-15T03:09:46;2.70;;;1.90;;
42886;SDS011;29032;56.028;92.904;2023-05-15T03:15:06;4.17;;;2.30;;
42886;SDS011;29032;56.028;92.904;2023-05-15T03:20:10;2.03;;;1.80;;
42886;SDS011;29032;56.028;92.904;2023-05-15T03:30:33;2.00;;;1.70;;
42886;SDS011;29032;56.028;92.904;2023-05-15T03:35:55;2.53;;;1.77;;
42886;SDS011;29032;56.028;92.904;2023-05-15T03:46:17;5.30;;;1.80;;
42886;SDS011;29032;56.028;92.904;2023-05-15T03:51:39;2.13;;;1.93;;
42886;SDS011;29032;56.028;92.904;2023-05-15T03:56:41;4.87;;;1.70;;
42886;SDS011;29032;56.028;92.904;2023-05-15T04:01:43;4.63;;;1.73;;
42886;SDS011;29032;56.028;92.904;2023-05-15T04:07:05;3.90;;;1.67;;
42886;SDS011;29032;56.028;92.904;2023-05-15T04:12:07;3.50;;;1.60;;
42886;SDS011;29032;56.028;92.904;2023-05-15T04:17:27;1.90;;;1.60;;
42886;SDS011;29032;56.028;92.904;2023-05-15T04:22:49;2.30;;;1.70;;
42886;SDS011;29032;56.028;92.904;2023-05-15T04:33:12;2.87;;;1.70;;
42886;SDS011;29032;56.028;92.904;2023-05-15T04:43:35;2.33;;;1.60;;
42886;SDS011;29032;56.028;92.904;2023-05-15T04:48:37;3.30;;;1.87;;
42886;SDS011;29032;56.028;92.904;2023-05-15T04:53:59;5.13;;;1.80;;
42886;SDS011;29032;56.028;92.904;2023-05-15T04:59:01;2.47;;;1.77;;
42886;SDS011;29032;56.028;92.904;2023-05-15T05:04:03;2.20;;;1.70;;
42886;SDS011;29032;56.028;92.904;2023-05-15T05:09:06;2.23;;;1.70;;
42886;SDS011;29032;56.028;92.904;2023-05-15T05:14:08;7.77;;;1.83;;
42886;SDS011;29032;56.028;92.904;2023-05-15T05:24:32;3.97;;;2.00;;
42886;SDS011;29032;56.028;92.904;2023-05-15T05:29:35;4.03;;;2.33;;
42886;SDS011;29032;56.028;92.904;2023-05-15T05:34:55;7.10;;;1.90;;
42886;SDS011;29032;56.028;92.904;2023-05-15T05:39:59;4.33;;;2.20;;
42886;SDS011;29032;56.028;92.904;2023-05-15T05:45:01;3.73;;;1.90;;
42886;SDS011;29032;56.028;92.904;2023-05-15T05:50:03;3.53;;;1.87;;
42886;SDS011;29032;56.028;92.904;2023-05-15T05:55:07;4.47;;;1.80;;
42886;SDS011;29032;56.028;92.904;2023-05-15T06:00:10;3.40;;;1.60;;
42886;SDS011;29032;56.028;92.904;2023-05-15T06:05:13;3.67;;;1.90;;
42886;SDS011;29032;56.028;92.904;2023-05-15T06:15:36;4.00;;;2.10;;
42886;SDS011;29032;56.028;92.904;2023-05-15T06:20:39;5.03;;;2.27;;
42886;SDS011;29032;56.028;92.904;2023-05-15T06:25:42;2.90;;;2.10;;
42886;SDS011;29032;56.028;92.904;2023-05-15T06:30:44;7.77;;;2.30;;
42886;SDS011;29032;56.028;92.904;2023-05-15T06:35:46;7.13;;;2.37;;
42886;SDS011;29032;56.028;92.904;2023-05-15T06:40:50;8.57;;;2.70;;
42886;SDS011;29032;56.028;92.904;2023-05-15T06:45:52;3.00;;;2.30;;
42886;SDS011;29032;56.028;92.904;2023-05-15T06:50:54;3.97;;;2.43;;
42886;SDS011;29032;56.028;92.904;2023-05-15T06:56:16;4.00;;;2.80;;
42886;SDS011;29032;56.028;92.904;2023-05-15T07:01:18;5.03;;;2.80;;
42886;SDS011;29032;56.028;92.904;2023-05-15T07:06:41;6.50;;;3.10;;
42886;SDS011;29032;56.028;92.904;2023-05-15T07:11:45;14.97;;;3.47;;
42886;SDS011;29032;56.028;92.904;2023-05-15T07:22:44;4.63;;;3.00;;
42886;SDS011;29032;56.028;92.904;2023-05-15T07:27:48;10.30;;;3.83;;
42886;SDS011;29032;56.028;92.904;2023-05-15T07:33:08;6.10;;;3.60;;
42886;SDS011;29032;56.028;92.904;2023-05-15T07:38:37;9.90;;;3.65;;
42886;SDS011;29032;56.028;92.904;2023-05-15T07:43:40;4.90;;;2.87;;
42886;SDS011;29032;56.028;92.904;2023-05-15T07:48:42;6.10;;;2.80;;
42886;SDS011;29032;56.028;92.904;2023-05-15T07:53:44;6.83;;;3.17;;
42886;SDS011;29032;56.028;92.904;2023-05-15T07:59:06;7.47;;;3.20;;
42886;SDS011;29032;56.028;92.904;2023-05-15T08:04:08;3.83;;;2.80;;
42886;SDS011;29032;56.028;92.904;2023-05-15T08:09:10;7.90;;;3.47;;
42886;SDS011;29032;56.028;92.904;2023-05-15T08:14:13;6.33;;;2.87;;
42886;SDS011;29032;56.028;92.904;2023-05-15T08:19:16;6.17;;;3.03;;
42886;SDS011;29032;56.028;92.904;2023-05-15T08:24:18;7.03;;;3.00;;
42886;SDS011;29032;56.028;92.904;2023-05-15T08:29:40;3.27;;;2.70;;
42886;SDS011;29032;56.028;92.904;2023-05-15T08:34:41;7.37;;;3.40;;
42886;SDS011;29032;56.028;92.904;2023-05-15T08:39:44;4.97;;;3.20;;
42886;SDS011;29032;56.028;92.904;2023-05-15T08:50:15;6.70;;;4.27;;
42886;SDS011;29032;56.028;92.904;2023-05-15T08:55:17;11.93;;;5.10;;
42886;SDS011;29032;56.028;92.904;2023-05-15T09:00:22;6.57;;;3.73;;
42886;SDS011;29032;56.028;92.904;2023-05-15T09:05:25;5.13;;;4.10;;
42886;SDS011;29032;56.028;92.904;2023-05-15T09:10:28;6.80;;;3.50;;
42886;SDS011;29032;56.028;92.904;2023-05-15T09:15:32;8.07;;;3.90;;
42886;SDS011;29032;56.028;92.904;2023-05-15T09:20:35;6.63;;;3.57;;
42886;SDS011;29032;56.028;92.904;2023-05-15T09:25:38;6.17;;;3.87;;
42886;SDS011;29032;56.028;92.904;2023-05-15T09:30:44;4.70;;;3.33;;
42886;SDS011;29032;56.028;92.904;2023-05-15T09:35:46;5.53;;;3.50;;
42886;SDS011;29032;56.028;92.904;2023-05-15T09:40:48;8.30;;;4.73;;
42886;SDS011;29032;56.028;92.904;2023-05-15T09:45:52;10.93;;;4.30;;
42886;SDS011;29032;56.028;92.904;2023-05-15T09:51:13;5.37;;;3.60;;
42886;SDS011;29032;56.028;92.904;2023-05-15T09:56:16;7.57;;;3.33;;
42886;SDS011;29032;56.028;92.904;2023-05-15T10:06:43;5.37;;;3.43;;
42886;SDS011;29032;56.028;92.904;2023-05-15T10:11:48;5.37;;;3.30;;
42886;SDS011;29032;56.028;92.904;2023-05-15T10:16:53;6.20;;;3.53;;
42886;SDS011;29032;56.028;92.904;2023-05-15T10:21:56;9.33;;;4.07;;
42886;SDS011;29032;56.028;92.904;2023-05-15T10:27:00;4.93;;;3.30;;
42886;SDS011;29032;56.028;92.904;2023-05-15T10:32:04;6.43;;;3.93;;
42886;SDS011;29032;56.028;92.904;2023-05-15T10:37:07;9.83;;;4.40;;
42886;SDS011;29032;56.028;92.904;2023-05-15T10:42:09;8.10;;;3.77;;
42886;SDS011;29032;56.028;92.904;2023-05-15T10:47:14;7.93;;;4.10;;
42886;SDS011;29032;56.028;92.904;2023-05-15T10:52:16;12.43;;;5.23;;
42886;SDS011;29032;56.028;92.904;2023-05-15T10:57:19;10.37;;;5.50;;
42886;SDS011;29032;56.028;92.904;2023-05-15T11:02:23;7.77;;;5.97;;
42886;SDS011;29032;56.028;92.904;2023-05-15T11:07:26;9.47;;;4.30;;
42886;SDS011;29032;56.028;92.904;2023-05-15T11:12:53;8.10;;;5.03;;
42886;SDS011;29032;56.028;92.904;2023-05-15T11:18:34;8.13;;;5.63;;
42886;SDS011;29032;56.028;92.904;2023-05-15T11:24:02;12.50;;;7.33;;
42886;SDS011;29032;56.028;92.904;2023-05-15T11:34:32;10.97;;;6.93;;
42886;SDS011;29032;56.028;92.904;2023-05-15T11:39:37;11.43;;;7.63;;
42886;SDS011;29032;56.028;92.904;2023-05-15T11:50:01;16.43;;;8.73;;
42886;SDS011;29032;56.028;92.904;2023-05-15T11:55:05;13.77;;;8.43;;
42886;SDS011;29032;56.028;92.904;2023-05-15T12:00:09;10.87;;;6.53;;
42886;SDS011;29032;56.028;92.904;2023-05-15T12:05:13;9.00;;;6.10;;
42886;SDS011;29032;56.028;92.904;2023-05-15T12:10:15;12.23;;;6.00;;
42886;SDS011;29032;56.028;92.904;2023-05-15T12:15:17;11.17;;;7.00;;
42886;SDS011;29032;56.028;92.904;2023-05-15T12:25:41;14.33;;;6.97;;
42886;SDS011;29032;56.028;92.904;2023-05-15T12:30:45;12.80;;;7.90;;
42886;SDS011;29032;56.028;92.904;2023-05-15T12:36:07;13.33;;;8.13;;
42886;SDS011;29032;56.028;92.904;2023-05-15T12:41:09;12.50;;;7.67;;
42886;SDS011;29032;56.028;92.904;2023-05-15T12:46:12;12.80;;;8.97;;
42886;SDS011;29032;56.028;92.904;2023-05-15T12:51:16;15.13;;;9.53;;
42886;SDS011;29032;56.028;92.904;2023-05-15T12:56:18;14.53;;;9.03;;
42886;SDS011;29032;56.028;92.904;2023-05-15T13:01:20;14.10;;;8.87;;
42886;SDS011;29032;56.028;92.904;2023-05-15T13:06:24;10.00;;;7.77;;
42886;SDS011;29032;56.028;92.904;2023-05-15T13:11:28;14.83;;;10.00;;
42886;SDS011;29032;56.028;92.904;2023-05-15T13:16:30;13.33;;;8.60;;
42886;SDS011;29032;56.028;92.904;2023-05-15T13:26:54;15.57;;;9.87;;
42886;SDS011;29032;56.028;92.904;2023-05-15T13:31:56;15.33;;;9.10;;
42886;SDS011;29032;56.028;92.904;2023-05-15T13:36:59;14.80;;;8.43;;
42886;SDS011;29032;56.028;92.904;2023-05-15T13:42:02;12.73;;;8.77;;
42886;SDS011;29032;56.028;92.904;2023-05-15T13:47:04;10.27;;;7.13;;
42886;SDS011;29032;56.028;92.904;2023-05-15T13:52:08;13.20;;;7.37;;
42886;SDS011;29032;56.028;92.904;2023-05-15T13:57:28;9.20;;;6.83;;
42886;SDS011;29032;56.028;92.904;2023-05-15T14:02:30;11.00;;;6.40;;
42886;SDS011;29032;56.028;92.904;2023-05-15T14:07:34;10.40;;;6.93;;
42886;SDS011;29032;56.028;92.904;2023-05-15T14:12:54;10.53;;;6.40;;
42886;SDS011;29032;56.028;92.904;2023-05-15T14:17:57;12.03;;;6.67;;
42886;SDS011;29032;56.028;92.904;2023-05-15T14:23:00;9.90;;;6.40;;
42886;SDS011;29032;56.028;92.904;2023-05-15T14:28:02;11.63;;;7.90;;
42886;SDS011;29032;56.028;92.904;2023-05-15T14:44:08;20.43;;;12.60;;
42886;SDS011;29032;56.028;92.904;2023-05-15T14:49:28;20.27;;;13.07;;
42886;SDS011;29032;56.028;92.904;2023-05-15T14:54:49;28.40;;;14.67;;
42886;SDS011;29032;56.028;92.904;2023-05-15T15:00:10;35.53;;;19.83;;
42886;SDS011;29032;56.028;92.904;2023-05-15T15:05:13;22.43;;;12.70;;
42886;SDS011;29032;56.028;92.904;2023-05-15T15:10:17;21.20;;;11.13;;
42886;SDS011;29032;56.028;92.904;2023-05-15T15:15:37;17.67;;;10.17;;
42886;SDS011;29032;56.028;92.904;2023-05-15T15:20:40;14.73;;;9.03;;
42886;SDS011;29032;56.028;92.904;2023-05-15T15:25:43;17.23;;;9.70;;
42886;SDS011;29032;56.028;92.904;2023-05-15T15:30:47;15.33;;;8.33;;
42886;SDS011;29032;56.028;92.904;2023-05-15T15:41:30;13.60;;;8.37;;
42886;SDS011;29032;56.028;92.904;2023-05-15T15:46:32;12.53;;;7.40;;
42886;SDS011;29032;56.028;92.904;2023-05-15T15:51:34;13.00;;;6.57;;
42886;SDS011;29032;56.028;92.904;2023-05-15T15:56:37;10.33;;;6.10;;
42886;SDS011;29032;56.028;92.904;2023-05-15T16:01:39;9.83;;;5.47;;
42886;SDS011;29032;56.028;92.904;2023-05-15T16:06:41;8.57;;;5.47;;
42886;SDS011;29032;56.028;92.904;2023-05-15T16:11:44;9.07;;;5.60;;
42886;SDS011;29032;56.028;92.904;2023-05-15T16:17:05;11.43;;;6.07;;
42886;SDS011;29032;56.028;92.904;2023-05-15T16:22:07;10.00;;;5.77;;
42886;SDS011;29032;56.028;92.904;2023-05-15T16:27:29;11.53;;;6.73;;
42886;SDS011;29032;56.028;92.904;2023-05-15T16:32:31;13.97;;;7.77;;
42886;SDS011;29032;56.028;92.904;2023-05-15T16:37:33;13.00;;;6.80;;
42886;SDS011;29032;56.028;92.904;2023-05-15T16:42:36;9.00;;;6.40;;
42886;SDS011;29032;56.028;92.904;2023-05-15T16:47:38;12.47;;;5.87;;
42886;SDS011;29032;56.028;92.904;2023-05-15T16:52:40;10.10;;;6.43;;
42886;SDS011;29032;56.028;92.904;2023-05-15T16:57:44;8.87;;;6.20;;
42886;SDS011;29032;56.028;92.904;2023-05-15T17:02:47;10.30;;;6.30;;
42886;SDS011;29032;56.028;92.904;2023-05-15T17:08:07;16.43;;;10.10;;
42886;SDS011;29032;56.028;92.904;2023-05-15T17:13:11;15.27;;;9.90;;
42886;SDS011;29032;56.028;92.904;2023-05-15T17:18:13;13.40;;;7.90;;
42886;SDS011;29032;56.028;92.904;2023-05-15T17:23:15;16.63;;;8.97;;
42886;SDS011;29032;56.028;92.904;2023-05-15T17:28:18;14.30;;;9.07;;
42886;SDS011;29032;56.028;92.904;2023-05-15T17:33:20;17.20;;;10.50;;
42886;SDS011;29032;56.028;92.904;2023-05-15T17:38:22;15.23;;;9.60;;
42886;SDS011;29032;56.028;92.904;2023-05-15T17:43:26;17.97;;;9.60;;
42886;SDS011;29032;56.028;92.904;2023-05-15T17:48:28;15.63;;;8.73;;
42886;SDS011;29032;56.028;92.904;2023-05-15T17:53:48;15.87;;;9.53;;
42886;SDS011;29032;56.028;92.904;2023-05-15T17:59:10;15.47;;;9.10;;
42886;SDS011;29032;56.028;92.904;2023-05-15T18:04:12;16.43;;;8.73;;
42886;SDS011;29032;56.028;92.904;2023-05-15T18:09:32;16.87;;;9.70;;
42886;SDS011;29032;56.028;92.904;2023-05-15T18:14:53;21.03;;;11.60;;
42886;SDS011;29032;56.028;92.904;2023-05-15T18:20:14;22.83;;;12.40;;
42886;SDS011;29032;56.028;92.904;2023-05-15T18:25:35;20.50;;;12.20;;
42886;SDS011;29032;56.028;92.904;2023-05-15T18:30:38;18.07;;;10.93;;
42886;SDS011;29032;56.028;92.904;2023-05-15T18:35:40;20.13;;;12.43;;
42886;SDS011;29032;56.028;92.904;2023-05-15T18:40:44;20.60;;;10.93;;
42886;SDS011;29032;56.028;92.904;2023-05-15T18:45:48;16.70;;;9.83;;
42886;SDS011;29032;56.028;92.904;2023-05-15T18:50:50;13.33;;;8.23;;
42886;SDS011;29032;56.028;92.904;2023-05-15T18:55:52;12.13;;;7.07;;
42886;SDS011;29032;56.028;92.904;2023-05-15T19:00:56;9.50;;;6.27;;
42886;SDS011;29032;56.028;92.904;2023-05-15T19:05:58;11.97;;;7.47;;
42886;SDS011;29032;56.028;92.904;2023-05-15T19:16:40;10.98;;;5.70;;
42886;SDS011;29032;56.028;92.904;2023-05-15T19:21:42;8.07;;;5.40;;
42886;SDS011;29032;56.028;92.904;2023-05-15T19:32:06;9.10;;;4.93;;
42886;SDS011;29032;56.028;92.904;2023-05-15T19:37:08;6.87;;;4.93;;
42886;SDS011;29032;56.028;92.904;2023-05-15T19:42:10;8.90;;;4.57;;
42886;SDS011;29032;56.028;92.904;2023-05-15T19:47:14;6.23;;;4.30;;
42886;SDS011;29032;56.028;92.904;2023-05-15T19:52:34;8.03;;;4.00;;
42886;SDS011;29032;56.028;92.904;2023-05-15T20:02:58;4.90;;;3.63;;
42886;SDS011;29032;56.028;92.904;2023-05-15T20:08:00;7.33;;;4.10;;
42886;SDS011;29032;56.028;92.904;2023-05-15T20:13:02;6.23;;;3.57;;
42886;SDS011;29032;56.028;92.904;2023-05-15T20:18:24;5.17;;;3.60;;
42886;SDS011;29032;56.028;92.904;2023-05-15T20:23:26;4.60;;;3.57;;
42886;SDS011;29032;56.028;92.904;2023-05-15T20:28:28;4.93;;;3.63;;
42886;SDS011;29032;56.028;92.904;2023-05-15T20:33:32;6.80;;;3.83;;
42886;SDS011;29032;56.028;92.904;2023-05-15T20:38:35;4.77;;;3.40;;
42886;SDS011;29032;56.028;92.904;2023-05-15T20:43:37;5.40;;;3.27;;
42886;SDS011;29032;56.028;92.904;2023-05-15T20:48:41;4.60;;;3.43;;
42886;SDS011;29032;56.028;92.904;2023-05-15T20:53:43;5.80;;;3.00;;
42886;SDS011;29032;56.028;92.904;2023-05-15T20:58:45;5.93;;;3.40;;
42886;SDS011;29032;56.028;92.904;2023-05-15T21:09:27;6.05;;;3.70;;
42886;SDS011;29032;56.028;92.904;2023-05-15T21:14:29;7.20;;;3.67;;
42886;SDS011;29032;56.028;92.904;2023-05-15T21:19:31;6.33;;;4.00;;
42886;SDS011;29032;56.028;92.904;2023-05-15T21:24:34;7.20;;;4.37;;
42886;SDS011;29032;56.028;92.904;2023-05-15T21:29:37;8.30;;;4.80;;
42886;SDS011;29032;56.028;92.904;2023-05-15T21:34:39;5.97;;;3.97;;
42886;SDS011;29032;56.028;92.904;2023-05-15T21:39:43;7.10;;;3.70;;
42886;SDS011;29032;56.028;92.904;2023-05-15T21:44:45;5.47;;;3.77;;
42886;SDS011;29032;56.028;92.904;2023-05-15T21:49:47;5.87;;;3.77;;
42886;SDS011;29032;56.028;92.904;2023-05-15T21:54:50;6.43;;;3.73;;
42886;SDS011;29032;56.028;92.904;2023-05-15T22:05:13;4.20;;;3.20;;
42886;SDS011;29032;56.028;92.904;2023-05-15T22:10:17;5.13;;;3.30;;
42886;SDS011;29032;56.028;92.904;2023-05-15T22:15:19;4.87;;;3.10;;
42886;SDS011;29032;56.028;92.904;2023-05-15T22:20:21;3.27;;;2.77;;
42886;SDS011;29032;56.028;92.904;2023-05-15T22:25:24;4.53;;;3.13;;
42886;SDS011;29032;56.028;92.904;2023-05-15T22:30:45;5.27;;;3.23;;
42886;SDS011;29032;56.028;92.904;2023-05-15T22:35:47;6.10;;;3.40;;
42886;SDS011;29032;56.028;92.904;2023-05-15T22:40:51;7.37;;;3.80;;
42886;SDS011;29032;56.028;92.904;2023-05-15T22:45:54;4.93;;;3.37;;
42886;SDS011;29032;56.028;92.904;2023-05-15T22:50:56;4.67;;;3.07;;
42886;SDS011;29032;56.028;92.904;2023-05-15T22:56:00;4.23;;;3.03;;
42886;SDS011;29032;56.028;92.904;2023-05-15T23:01:02;5.97;;;3.07;;
42886;SDS011;29032;56.028;92.904;2023-05-15T23:06:04;3.77;;;2.40;;
42886;SDS011;29032;56.028;92.904;2023-05-15T23:11:08;6.70;;;2.60;;
42886;SDS011;29032;56.028;92.904;2023-05-15T23:16:10;2.50;;;2.20;;
42886;SDS011;29032;56.028;92.904;2023-05-15T23:37:14;7.83;;;4.40;;
42886;SDS011;29032;56.028;92.904;2023-05-15T23:42:55;6.17;;;3.67;;
42886;SDS011;29032;56.028;92.904;2023-05-15T23:47:57;8.73;;;4.67;;
42886;SDS011;29032;56.028;92.904;2023-05-15T23:53:03;8.07;;;3.83;;
